createdAt,value
2018-09-18T00:01:03.742Z,98907.73
2018-09-18T00:03:38.484Z,98906.95
2018-09-18T00:06:12.951Z,98901.16
2018-09-18T00:08:47.224Z,98902.38
2018-09-18T00:11:21.591Z,98903.76
2018-09-18T00:13:55.986Z,98896.66
2018-09-18T00:16:30.444Z,98893.05
2018-09-18T00:19:05.468Z,98892.77
2018-09-18T00:21:39.853Z,98890.09
2018-09-18T00:24:14.200Z,98886.19
2018-09-18T00:26:49.056Z,98888.78
2018-09-18T00:29:23.277Z,98881.84
2018-09-18T00:31:57.653Z,98877.42
2018-09-18T00:34:32.024Z,98882.92
2018-09-18T00:37:07.096Z,98882.20
2018-09-18T00:39:41.413Z,98879.36
2018-09-18T00:42:15.752Z,98874.90
2018-09-18T00:44:50.098Z,98872.00
2018-09-18T00:47:24.468Z,98873.86
2018-09-18T00:49:58.736Z,98867.44
2018-09-18T00:52:33.209Z,98873.51
2018-09-18T00:55:07.564Z,98871.04
2018-09-18T00:57:41.802Z,98867.27
2018-09-18T01:00:16.100Z,98870.03
2018-09-18T01:02:51.783Z,98866.05
2018-09-18T01:05:26.240Z,98867.36
2018-09-18T01:08:00.546Z,98862.80
2018-09-18T01:10:34.880Z,98864.09
2018-09-18T01:13:09.161Z,98860.61
2018-09-18T01:15:48.761Z,98854.89
2018-09-18T01:18:33.700Z,98867.21
2018-09-18T01:21:08.015Z,98855.20
2018-09-18T01:23:42.347Z,98853.82
2018-09-18T01:26:16.773Z,98861.28
2018-09-18T01:28:51.671Z,98855.63
2018-09-18T01:31:26.000Z,98848.97
2018-09-18T01:34:00.692Z,98849.05
2018-09-18T01:36:35.207Z,98849.10
2018-09-18T01:39:10.128Z,98844.18
2018-09-18T01:41:44.614Z,98840.56
2018-09-18T01:44:18.839Z,98839.67
2018-09-18T01:46:53.673Z,98841.84
2018-09-18T01:49:27.947Z,98840.25
2018-09-18T01:52:02.699Z,98830.36
2018-09-18T01:54:37.427Z,98837.23
2018-09-18T01:57:11.876Z,98834.53
2018-09-18T01:59:46.232Z,98835.27
2018-09-18T02:02:20.843Z,98830.62
2018-09-18T02:04:55.164Z,98827.02
2018-09-18T02:07:29.510Z,98831.94
2018-09-18T02:10:03.950Z,98828.89
2018-09-18T02:12:38.372Z,98831.42
2018-09-18T02:15:12.775Z,98829.47
2018-09-18T02:17:47.198Z,98827.30
2018-09-18T02:20:21.618Z,98832.22
2018-09-18T02:22:55.963Z,98829.98
2018-09-18T02:25:30.162Z,98824.99
2018-09-18T02:28:04.462Z,98829.05
2018-09-18T02:30:38.814Z,98822.02
2018-09-18T02:33:13.175Z,98825.80
2018-09-18T02:36:05.844Z,98825.87
2018-09-18T02:38:40.315Z,98820.88
2018-09-18T02:41:14.540Z,98821.72
2018-09-18T02:43:48.920Z,98817.33
2018-09-18T02:46:23.267Z,98815.74
2018-09-18T02:48:57.630Z,98817.55
2018-09-18T02:51:32.016Z,98816.75
2018-09-18T02:54:06.265Z,98812.05
2018-09-18T02:56:40.612Z,98818.63
2018-09-18T02:59:14.831Z,98806.69
2018-09-18T03:01:49.435Z,98813.13
2018-09-18T03:04:33.372Z,98812.83
2018-09-18T03:07:07.923Z,98807.12
2018-09-18T03:09:42.271Z,98802.20
2018-09-18T03:12:16.643Z,98802.78
2018-09-18T03:14:51.095Z,98804.37
2018-09-18T03:17:25.343Z,98800.75
2018-09-18T03:19:59.704Z,98800.91
2018-09-18T03:22:34.105Z,98797.36
2018-09-18T03:25:22.768Z,98802.34
2018-09-18T03:28:12.559Z,98798.08
2018-09-18T03:30:47.178Z,98798.00
2018-09-18T03:33:21.779Z,98793.88
2018-09-18T03:36:08.288Z,98795.62
2018-09-18T03:38:43.003Z,98793.23
2018-09-18T03:41:41.107Z,98795.32
2018-09-18T03:44:26.880Z,98796.48
2018-09-18T03:47:01.443Z,98793.58
2018-09-18T03:49:48.785Z,98788.87
2018-09-18T03:52:33.007Z,98784.91
2018-09-18T03:55:07.307Z,98786.34
2018-09-18T03:57:41.744Z,98776.29
2018-09-18T04:00:19.238Z,98780.27
2018-09-18T04:03:08.283Z,98783.72
2018-09-18T04:05:43.176Z,98776.78
2018-09-18T04:08:17.696Z,98783.59
2018-09-18T04:10:52.158Z,98766.08
2018-09-18T04:13:26.604Z,98770.30
2018-09-18T04:16:01.153Z,98768.77
2018-09-18T04:18:35.489Z,98768.70
2018-09-18T04:21:10.260Z,98768.27
2018-09-18T04:23:57.984Z,98758.65
2018-09-18T04:26:32.460Z,98763.36
2018-09-18T04:29:07.555Z,98763.14
2018-09-18T04:31:42.083Z,98756.70
2018-09-18T04:34:16.547Z,98752.20
2018-09-18T04:36:50.926Z,98748.30
2018-09-18T04:39:25.336Z,98751.20
2018-09-18T04:41:59.713Z,98749.09
2018-09-18T04:44:34.320Z,98756.98
2018-09-18T04:47:08.880Z,98747.20
2018-09-18T04:49:43.159Z,98751.47
2018-09-18T04:52:24.064Z,98752.36
2018-09-18T04:54:58.837Z,98756.42
2018-09-18T04:57:49.834Z,98746.21
2018-09-18T05:00:24.155Z,98750.70
2018-09-18T05:02:58.552Z,98751.50
2018-09-18T05:05:32.951Z,98744.74
2018-09-18T05:08:07.560Z,98751.27
2018-09-18T05:10:45.260Z,98745.63
2018-09-18T05:13:32.840Z,98743.45
2018-09-18T05:16:07.296Z,98750.17
2018-09-18T05:18:41.791Z,98749.08
2018-09-18T05:24:30.180Z,98748.52
2018-09-18T05:27:14.320Z,98738.80
2018-09-18T05:29:48.839Z,98756.09
2018-09-18T05:32:23.255Z,98746.04
2018-09-18T05:34:57.719Z,98746.75
2018-09-18T05:37:32.524Z,98752.67
2018-09-18T05:40:06.946Z,98753.84
2018-09-18T05:42:41.308Z,98748.12
2018-09-18T05:45:15.847Z,98740.02
2018-09-18T05:47:50.183Z,98749.59
2018-09-18T05:50:25.153Z,98740.60
2018-09-18T05:53:18.848Z,98745.86
2018-09-18T05:55:57.264Z,98747.29
2018-09-18T05:58:31.895Z,98754.70
2018-09-18T06:01:06.497Z,98747.12
2018-09-18T06:03:41.080Z,98747.60
2018-09-18T06:06:15.696Z,98749.14
2018-09-18T06:08:50.426Z,98750.41
2018-09-18T06:11:34.045Z,98747.13
2018-09-18T06:14:25.342Z,98752.98
2018-09-18T06:20:02.572Z,98751.97
2018-09-18T06:22:37.301Z,98756.66
2018-09-18T06:25:12.018Z,98752.48
2018-09-18T06:27:46.637Z,98757.34
2018-09-18T06:30:21.172Z,98753.26
2018-09-18T06:32:55.706Z,98749.84
2018-09-18T06:35:30.498Z,98755.52
2018-09-18T06:38:05.071Z,98754.39
2018-09-18T06:40:39.605Z,98754.58
2018-09-18T06:43:14.074Z,98758.45
2018-09-18T06:45:48.894Z,98750.28
2018-09-18T06:48:23.519Z,98756.23
2018-09-18T06:50:58.102Z,98750.98
2018-09-18T06:53:32.829Z,98759.95
2018-09-18T06:56:07.432Z,98752.83
2018-09-18T06:58:41.911Z,98756.92
2018-09-18T07:01:16.429Z,98746.17
2018-09-18T07:03:50.969Z,98747.28
2018-09-18T07:06:25.469Z,98748.54
2018-09-18T07:09:00.032Z,98746.38
2018-09-18T07:11:35.091Z,98739.77
2018-09-18T07:14:09.720Z,98743.37
2018-09-18T07:16:44.144Z,98746.02
2018-09-18T07:19:19.023Z,98740.23
2018-09-18T07:21:53.600Z,98742.61
2018-09-18T07:24:28.023Z,98747.38
2018-09-18T07:27:02.500Z,98748.27
2018-09-18T07:29:37.068Z,98745.77
2018-09-18T07:32:11.488Z,98750.48
2018-09-18T07:34:46.028Z,98751.14
2018-09-18T07:37:20.557Z,98753.23
2018-09-18T07:39:55.401Z,98749.66
2018-09-18T07:42:30.183Z,98749.50
2018-09-18T07:45:04.612Z,98750.25
2018-09-18T07:47:39.191Z,98750.02
2018-09-18T07:50:13.893Z,98750.32
2018-09-18T07:52:48.412Z,98750.59
2018-09-18T07:55:22.896Z,98750.55
2018-09-18T07:57:57.410Z,98749.70
2018-09-18T08:00:31.812Z,98748.58
2018-09-18T08:03:06.493Z,98750.20
2018-09-18T08:05:41.060Z,98746.64
2018-09-18T08:08:15.924Z,98746.11
2018-09-18T08:10:50.611Z,98744.23
2018-09-18T08:13:25.236Z,98745.52
2018-09-18T08:15:59.853Z,98746.13
2018-09-18T08:18:34.494Z,98738.62
2018-09-18T08:21:08.903Z,98739.38
2018-09-18T08:23:43.344Z,98740.63
2018-09-18T08:26:17.936Z,98747.70
2018-09-18T08:28:52.590Z,98750.30
2018-09-18T08:31:27.693Z,98756.78
2018-09-18T08:34:02.256Z,98752.86
2018-09-18T08:36:36.753Z,98757.66
2018-09-18T08:39:11.228Z,98742.70
2018-09-18T08:41:45.615Z,98744.63
2018-09-18T08:44:24.272Z,98747.52
2018-09-18T08:46:58.888Z,98748.48
2018-09-18T08:49:33.360Z,98757.11
2018-09-18T08:52:08.151Z,98752.78
2018-09-18T08:54:42.822Z,98762.17
2018-09-18T08:57:17.378Z,98744.98
2018-09-18T08:59:51.853Z,98749.71
2018-09-18T09:02:26.576Z,98751.61
2018-09-18T09:05:01.113Z,98750.30
2018-09-18T09:07:35.909Z,98744.95
2018-09-18T09:10:10.392Z,98750.46
2018-09-18T09:12:45.181Z,98747.20
2018-09-18T09:15:19.820Z,98746.00
2018-09-18T09:17:54.345Z,98743.72
2018-09-18T09:20:28.920Z,98747.78
2018-09-18T09:23:03.679Z,98748.77
2018-09-18T09:25:38.185Z,98745.42
2018-09-18T09:28:12.744Z,98743.69
2018-09-18T09:30:47.455Z,98748.08
2018-09-18T09:33:22.138Z,98752.63
2018-09-18T09:35:56.646Z,98750.67
2018-09-18T09:38:31.315Z,98750.64
2018-09-18T09:41:06.115Z,98740.95
2018-09-18T09:43:40.904Z,98739.11
2018-09-18T09:46:15.441Z,98752.19
2018-09-18T09:48:49.957Z,98744.20
2018-09-18T09:51:24.522Z,98745.89
2018-09-18T09:53:59.013Z,98749.11
2018-09-18T09:56:33.701Z,98749.59
2018-09-18T09:59:08.347Z,98743.87
2018-09-18T10:01:43.928Z,98748.41
2018-09-18T10:04:18.681Z,98743.49
2018-09-18T10:06:53.188Z,98744.66
2018-09-18T10:09:28.033Z,98737.08
2018-09-18T10:12:02.615Z,98740.47
2018-09-18T10:14:37.337Z,98734.52
2018-09-18T10:17:12.033Z,98737.95
2018-09-18T10:19:46.615Z,98738.84
2018-09-18T10:22:21.143Z,98733.08
2018-09-18T10:24:55.782Z,98736.67
2018-09-18T10:27:30.425Z,98735.37
2018-09-18T10:30:05.195Z,98745.04
2018-09-18T10:32:39.770Z,98740.71
2018-09-18T10:35:14.365Z,98744.34
2018-09-18T10:37:48.847Z,98739.12
2018-09-18T10:40:23.385Z,98737.28
2018-09-18T10:42:57.778Z,98729.75
2018-09-18T10:45:32.228Z,98732.27
2018-09-18T10:48:06.771Z,98732.23
2018-09-18T10:50:41.274Z,98730.46
2018-09-18T10:53:15.824Z,98727.51
2018-09-18T10:55:50.371Z,98725.06
2018-09-18T10:58:25.008Z,98720.05
2018-09-18T11:00:59.504Z,98717.95
2018-09-18T11:03:34.048Z,98721.28
2018-09-18T11:06:08.708Z,98724.06
2018-09-18T11:08:43.189Z,98717.56
2018-09-18T11:11:17.649Z,98705.60
2018-09-18T11:13:52.302Z,98708.21
2018-09-18T11:16:26.738Z,98705.47
2018-09-18T11:19:01.802Z,98699.41
2018-09-18T11:21:36.286Z,98703.31
2018-09-18T11:24:10.880Z,98703.94
2018-09-18T11:26:45.525Z,98699.10
2018-09-18T11:29:20.252Z,98708.42
2018-09-18T11:31:54.901Z,98699.27
2018-09-18T11:34:29.471Z,98700.39
2018-09-18T11:37:04.018Z,98704.94
2018-09-18T11:39:38.688Z,98699.95
2018-09-18T11:42:13.578Z,98702.88
2018-09-18T11:44:48.238Z,98701.62
2018-09-18T11:47:22.936Z,98701.90
2018-09-18T11:49:57.642Z,98703.56
2018-09-18T11:52:32.122Z,98695.61
2018-09-18T11:55:06.639Z,98696.23
2018-09-18T11:57:41.193Z,98694.70
2018-09-18T12:00:15.788Z,98691.86
2018-09-18T12:02:50.439Z,98691.48
2018-09-18T12:05:25.048Z,98695.78
2018-09-18T12:07:59.494Z,98692.48
2018-09-18T12:10:34.045Z,98685.98
2018-09-18T12:13:08.620Z,98694.08
2018-09-18T12:15:43.334Z,98685.30
2018-09-18T12:18:18.081Z,98674.23
2018-09-18T12:20:52.596Z,98676.25
2018-09-18T12:23:27.777Z,98675.13
2018-09-18T12:26:02.176Z,98676.56
2018-09-18T12:28:36.860Z,98684.25
2018-09-18T12:31:11.316Z,98682.55
2018-09-18T12:33:45.665Z,98671.53
2018-09-18T12:36:20.173Z,98673.20
2018-09-18T12:38:54.642Z,98672.64
2018-09-18T12:41:29.165Z,98668.75
2018-09-18T12:44:03.568Z,98663.31
2018-09-18T12:46:38.246Z,98670.59
2018-09-18T12:49:12.886Z,98665.84
2018-09-18T12:51:47.417Z,98658.58
2018-09-18T12:54:21.853Z,98659.00
2018-09-18T12:56:56.445Z,98664.78
2018-09-18T12:59:30.990Z,98658.16
2018-09-18T13:02:05.521Z,98657.59
2018-09-18T13:04:40.183Z,98661.53
2018-09-18T13:07:14.816Z,98661.00
2018-09-18T13:09:49.243Z,98668.73
2018-09-18T13:12:24.265Z,98661.58
2018-09-18T13:14:58.815Z,98661.97
2018-09-18T13:17:33.469Z,98656.97
2018-09-18T13:20:07.927Z,98656.53
2018-09-18T13:22:42.267Z,98655.40
2018-09-18T13:25:16.772Z,98650.42
2018-09-18T13:27:51.488Z,98654.56
2018-09-18T13:30:26.106Z,98650.92
2018-09-18T13:33:01.561Z,98656.20
2018-09-18T13:35:36.004Z,98657.66
2018-09-18T13:38:10.788Z,98657.59
2018-09-18T13:40:45.739Z,98652.66
2018-09-18T13:43:20.213Z,98653.66
2018-09-18T13:45:54.804Z,98651.19
2018-09-18T13:48:29.281Z,98652.78
2018-09-18T13:51:03.744Z,98655.12
2018-09-18T13:53:38.376Z,98651.48
2018-09-18T13:56:12.841Z,98655.36
2018-09-18T13:58:47.469Z,98660.68
2018-09-18T14:01:22.438Z,98662.65
2018-09-18T14:03:56.904Z,98660.13
2018-09-18T14:06:31.287Z,98663.08
2018-09-18T14:09:07.189Z,98662.47
2018-09-18T14:11:41.628Z,98659.86
2018-09-18T14:14:23.271Z,98661.83
2018-09-18T14:16:57.861Z,98664.36
2018-09-18T14:19:32.472Z,98659.87
2018-09-18T14:22:07.134Z,98661.50
2018-09-18T14:24:41.720Z,98670.23
2018-09-18T14:27:16.144Z,98666.06
2018-09-18T14:29:50.695Z,98664.44
2018-09-18T14:32:26.074Z,98664.36
2018-09-18T14:35:00.472Z,98661.55
2018-09-18T14:37:43.378Z,98665.97
2018-09-18T14:40:37.822Z,98670.45
2018-09-18T14:43:12.328Z,98672.33
2018-09-18T14:45:46.968Z,98675.34
2018-09-18T14:48:21.550Z,98681.45
2018-09-18T14:50:55.966Z,98678.48
2018-09-18T14:53:30.436Z,98680.27
2018-09-18T14:56:05.013Z,98682.02
2018-09-18T14:58:39.664Z,98686.62
2018-09-18T15:01:14.253Z,98687.45
2018-09-18T15:03:48.808Z,98685.83
2018-09-18T15:06:23.374Z,98681.66
2018-09-18T15:08:58.248Z,98692.86
2018-09-18T15:11:32.733Z,98698.56
2018-09-18T15:14:07.570Z,98698.68
2018-09-18T15:16:42.180Z,98693.59
2018-09-18T15:19:16.748Z,98698.88
2018-09-18T15:21:51.456Z,98706.20
2018-09-18T15:24:26.304Z,98703.23
2018-09-18T15:27:00.831Z,98701.19
2018-09-18T15:29:35.309Z,98711.67
2018-09-18T15:32:09.934Z,98707.94
2018-09-18T15:34:44.416Z,98710.22
2018-09-18T15:37:19.088Z,98706.83
2018-09-18T15:39:54.022Z,98706.29
2018-09-18T15:42:28.492Z,98705.78
2018-09-18T15:45:02.920Z,98713.40
2018-09-18T15:47:37.319Z,98711.73
2018-09-18T15:50:11.870Z,98714.78
2018-09-18T15:52:46.472Z,98717.73
2018-09-18T15:55:21.553Z,98711.70
2018-09-18T15:57:57.056Z,98722.83
2018-09-18T16:00:31.721Z,98719.87
2018-09-18T16:03:06.440Z,98718.58
2018-09-18T16:05:41.041Z,98716.67
2018-09-18T16:08:15.651Z,98722.39
2018-09-18T16:10:50.264Z,98721.07
2018-09-18T16:13:24.668Z,98728.02
2018-09-18T16:15:59.094Z,98719.47
2018-09-18T16:18:33.745Z,98716.38
2018-09-18T16:21:08.353Z,98717.80
2018-09-18T16:23:43.117Z,98714.53
2018-09-18T16:26:18.128Z,98715.33
2018-09-18T16:28:52.748Z,98726.17
2018-09-18T16:31:27.292Z,98722.92
2018-09-18T16:34:01.740Z,98721.37
2018-09-18T16:36:36.580Z,98724.72
2018-09-18T16:39:11.211Z,98725.84
2018-09-18T16:41:45.528Z,98727.71
2018-09-18T16:44:20.177Z,98729.72
2018-09-18T16:46:55.149Z,98729.25
2018-09-18T16:49:29.657Z,98730.38
2018-09-18T16:52:04.069Z,98725.84
2018-09-18T16:54:38.599Z,98733.50
2018-09-18T16:57:12.891Z,98736.91
2018-09-18T16:59:47.456Z,98746.89
2018-09-18T17:02:22.173Z,98749.39
2018-09-18T17:04:56.880Z,98747.17
2018-09-18T17:07:31.586Z,98747.09
2018-09-18T17:10:06.012Z,98747.59
2018-09-18T17:12:40.599Z,98747.42
2018-09-18T17:15:15.109Z,98749.60
2018-09-18T17:17:49.682Z,98751.69
2018-09-18T17:20:24.446Z,98763.08
2018-09-18T17:22:59.073Z,98767.72
2018-09-18T17:25:34.068Z,98772.34
2018-09-18T17:28:08.587Z,98779.19
2018-09-18T17:30:43.144Z,98783.69
2018-09-18T17:33:17.680Z,98787.92
2018-09-18T17:35:52.193Z,98790.41
2018-09-18T17:38:26.884Z,98795.65
2018-09-18T17:41:01.536Z,98797.30
2018-09-18T17:43:36.114Z,98802.69
2018-09-18T17:46:10.885Z,98807.33
2018-09-18T17:48:45.537Z,98812.37
2018-09-18T17:51:20.179Z,98823.11
2018-09-18T17:53:54.653Z,98822.55
2018-09-18T17:56:29.360Z,98824.77
2018-09-18T17:59:03.880Z,98831.70
2018-09-18T18:01:38.520Z,98839.41
2018-09-18T18:04:18.777Z,98848.95
2018-09-18T18:06:53.213Z,98855.52
2018-09-18T18:09:28.022Z,98862.86
2018-09-18T18:12:02.791Z,98865.05
2018-09-18T18:14:37.329Z,98872.39
2018-09-18T18:17:11.824Z,98871.18
2018-09-18T18:19:46.261Z,98879.87
2018-09-18T18:22:20.877Z,98891.35
2018-09-18T18:24:55.412Z,98898.67
2018-09-18T18:27:29.801Z,98898.63
2018-09-18T18:30:04.644Z,98914.84
2018-09-18T18:32:39.483Z,98918.19
2018-09-18T18:35:14.116Z,98922.54
2018-09-18T18:37:48.776Z,98926.30
2018-09-18T18:40:23.309Z,98932.58
2018-09-18T18:42:57.779Z,98938.69
2018-09-18T18:45:32.479Z,98938.28
2018-09-18T18:48:07.668Z,98938.41
2018-09-18T18:50:42.014Z,98944.53
2018-09-18T18:53:16.569Z,98943.08
2018-09-18T18:55:51.276Z,98950.13
2018-09-18T18:58:25.917Z,98955.84
2018-09-18T19:01:00.308Z,98957.11
2018-09-18T19:03:34.940Z,98964.57
2018-09-18T19:06:09.644Z,98965.50
2018-09-18T19:08:44.194Z,98960.02
2018-09-18T19:11:18.699Z,98960.19
2018-09-18T19:13:53.415Z,98966.05
2018-09-18T19:16:27.959Z,98977.17
2018-09-18T19:19:02.416Z,98967.38
2018-09-18T19:21:36.955Z,98978.33
2018-09-18T19:24:24.640Z,98980.55
2018-09-18T19:26:59.233Z,98985.61
2018-09-18T19:29:33.866Z,98990.76
2018-09-18T19:32:08.472Z,98995.08
2018-09-18T19:34:42.885Z,98988.27
2018-09-18T19:37:17.336Z,98988.61
2018-09-18T19:39:51.952Z,98990.09
2018-09-18T19:42:26.497Z,98984.91
2018-09-18T19:45:01.289Z,98987.59
2018-09-18T19:47:35.982Z,98995.03
2018-09-18T19:50:16.675Z,98990.47
2018-09-18T19:52:51.035Z,98990.77
2018-09-18T19:55:25.627Z,98988.89
2018-09-18T19:58:00.180Z,98994.70
2018-09-18T20:00:34.780Z,98993.59
2018-09-18T20:03:09.624Z,99000.81
2018-09-18T20:05:44.288Z,99004.11
2018-09-18T20:08:18.960Z,99005.95
2018-09-18T20:10:53.698Z,99003.72
2018-09-18T20:13:28.340Z,99005.81
2018-09-18T20:16:02.969Z,99015.36
2018-09-18T20:18:37.685Z,99016.85
2018-09-18T20:21:12.303Z,99021.22
2018-09-18T20:23:46.792Z,99021.69
2018-09-18T20:26:21.233Z,99027.67
2018-09-18T20:28:55.820Z,99031.63
2018-09-18T20:31:30.337Z,99034.23
2018-09-18T20:34:04.967Z,99033.90
2018-09-18T20:36:39.494Z,99034.78
2018-09-18T20:39:14.069Z,99035.52
2018-09-18T20:41:48.786Z,99030.09
2018-09-18T20:44:23.245Z,99030.16
2018-09-18T20:46:58.313Z,99034.77
2018-09-18T20:49:32.818Z,99035.44
2018-09-18T20:52:07.416Z,99036.53
2018-09-18T20:54:41.899Z,99035.59
2018-09-18T20:57:16.396Z,99045.14
2018-09-18T20:59:51.156Z,99047.41
2018-09-18T21:02:25.687Z,99045.86
2018-09-18T21:05:00.266Z,99036.09
2018-09-18T21:07:34.980Z,99039.49
2018-09-18T21:10:09.463Z,99039.92
2018-09-18T21:12:58.062Z,99040.80
2018-09-18T21:15:33.101Z,99043.48
2018-09-18T21:18:07.746Z,99047.17
2018-09-18T21:20:42.247Z,99045.14
2018-09-18T21:23:16.672Z,99048.41
2018-09-18T21:25:58.446Z,99050.19
2018-09-18T21:28:33.030Z,99048.69
2018-09-18T21:31:07.636Z,99052.86
2018-09-18T21:33:48.333Z,99046.05
2018-09-18T21:36:22.983Z,99055.46
2018-09-18T21:38:57.571Z,99054.95
2018-09-18T21:41:32.375Z,99056.83
2018-09-18T21:46:41.306Z,99064.84
2018-09-18T21:49:15.725Z,99065.20
2018-09-18T21:51:49.944Z,99061.80
2018-09-18T21:54:24.214Z,99061.88
2018-09-18T21:56:58.631Z,99056.08
2018-09-18T21:59:33.128Z,99065.27
2018-09-18T22:02:07.533Z,99061.63
2018-09-18T22:04:41.935Z,99067.98
2018-09-18T22:07:16.272Z,99069.36
2018-09-18T22:09:50.665Z,99076.23
2018-09-18T22:12:25.125Z,99070.30
2018-09-18T22:14:59.427Z,99069.16
2018-09-18T22:17:33.841Z,99078.56
2018-09-18T22:20:08.613Z,99075.38
2018-09-18T22:22:43.132Z,99080.65
2018-09-18T22:25:17.613Z,99078.92
2018-09-18T22:27:52.184Z,99084.28
2018-09-18T22:30:26.480Z,99084.20
2018-09-18T22:33:00.811Z,99086.28
2018-09-18T22:35:35.026Z,99091.12
2018-09-18T22:38:09.297Z,99090.23
2018-09-18T22:40:43.897Z,99089.57
2018-09-18T22:43:18.311Z,99096.13
2018-09-18T22:45:52.738Z,99101.45
2018-09-18T22:48:27.089Z,99106.61
2018-09-18T22:51:01.528Z,99106.25
2018-09-18T22:53:36.013Z,99102.57
2018-09-18T22:56:10.398Z,99104.88
2018-09-18T22:58:44.704Z,99104.88
2018-09-18T23:01:19.103Z,99104.08
2018-09-18T23:03:53.292Z,99103.27
2018-09-18T23:06:27.725Z,99107.48
2018-09-18T23:09:02.137Z,99111.39
2018-09-18T23:11:36.540Z,99112.23
2018-09-18T23:14:10.993Z,99110.71
2018-09-18T23:16:45.807Z,99115.80
2018-09-18T23:19:20.148Z,99117.05
2018-09-18T23:21:54.416Z,99121.07
2018-09-18T23:24:28.924Z,99123.72
2018-09-18T23:27:03.216Z,99123.11
2018-09-18T23:29:37.603Z,99124.55
2018-09-18T23:32:12.020Z,99121.09
2018-09-18T23:34:46.753Z,99126.02
2018-09-18T23:37:21.106Z,99121.18
2018-09-18T23:39:55.382Z,99114.98
2018-09-18T23:42:29.867Z,99113.25
2018-09-18T23:45:04.150Z,99123.45
2018-09-18T23:47:38.407Z,99118.17
2018-09-18T23:50:12.776Z,99112.23
2018-09-18T23:52:47.281Z,99113.83
2018-09-18T23:55:21.608Z,99120.48
2018-09-18T23:57:56.041Z,99123.71
